Peru, Vermont
Current Conditions -  °F | °C
As of 3:54 AM on Saturday 22 Nov 2014 (Local Time) from KVSF Reporting Station
Overcast Overcast  
Wind Chill: -9°   Ceiling: 3600
Heat Index: -9°   Visibility: 10mi
Dew Point: -12°   Wind: 0mph
Humidity: 81%   Direction: NA
Pressure: 30.36"   Gusts: NA
Location:  43.23°N, 72.9°W
Report Text: KVSF 220854Z AUTO 00000KT 10SM OVC036 M09/M12 A3036 RMK AO2 SLP293 T10891117 57004 $
Loading
Personal Weather Stations






























Interactive Weather Map New forecast layout! Learn more

10-Day Weather Forecast

Advertisements
Track Severe Weather on mobile